createdAt,value
2018-04-19T00:01:39.473Z,15.50
2018-04-19T00:04:07.716Z,15.60
2018-04-19T00:06:35.959Z,15.60
2018-04-19T00:09:04.400Z,15.60
2018-04-19T00:11:32.596Z,15.50
2018-04-19T00:14:00.882Z,15.50
2018-04-19T00:16:29.124Z,15.40
2018-04-19T00:18:57.366Z,15.40
2018-04-19T00:21:25.557Z,15.30
2018-04-19T00:23:53.850Z,15.30
2018-04-19T00:26:21.853Z,15.40
2018-04-19T00:28:50.138Z,15.20
2018-04-19T00:31:18.577Z,15.20
2018-04-19T00:33:46.588Z,15.20
2018-04-19T00:36:14.868Z,15.20
2018-04-19T00:38:43.110Z,15.20
2018-04-19T00:41:11.250Z,15.20
2018-04-19T00:43:39.400Z,15.10
2018-04-19T00:46:07.631Z,15.20
2018-04-19T00:48:35.685Z,15.10
2018-04-19T00:51:03.927Z,15.10
2018-04-19T00:53:32.174Z,15.20
2018-04-19T00:56:00.412Z,15.30
2018-04-19T00:58:28.655Z,15.30
2018-04-19T01:00:56.901Z,15.30
2018-04-19T01:03:25.140Z,15.20
2018-04-19T01:05:53.142Z,15.20
2018-04-19T01:08:21.314Z,15.10
2018-04-19T01:10:49.479Z,15.20
2018-04-19T01:13:18.595Z,15.10
2018-04-19T01:15:46.747Z,15.10
2018-04-19T01:18:14.978Z,15.10
2018-04-19T01:20:43.239Z,15.00
2018-04-19T01:23:11.471Z,15.00
2018-04-19T01:25:39.590Z,15.00
2018-04-19T01:28:07.748Z,15.00
2018-04-19T01:30:36.003Z,14.90
2018-04-19T01:33:04.597Z,14.90
2018-04-19T01:35:44.284Z,14.90
2018-04-19T01:38:12.330Z,14.90
2018-04-19T01:40:40.572Z,14.90
2018-04-19T01:43:08.814Z,15.00
2018-04-19T01:45:36.864Z,15.00
2018-04-19T01:48:05.103Z,14.90
2018-04-19T01:50:33.280Z,14.80
2018-04-19T01:53:02.122Z,14.70
2018-04-19T01:55:30.187Z,14.70
2018-04-19T01:57:58.404Z,14.80
2018-04-19T02:00:27.252Z,15.10
2018-04-19T02:02:55.489Z,15.00
2018-04-19T02:05:24.175Z,15.20
2018-04-19T02:07:52.375Z,15.40
2018-04-19T02:10:20.668Z,15.40
2018-04-19T02:12:48.902Z,15.50
2018-04-19T02:15:17.099Z,15.60
2018-04-19T02:17:45.341Z,15.60
2018-04-19T02:20:13.629Z,15.70
2018-04-19T02:22:41.871Z,15.80
2018-04-19T02:25:10.122Z,16.10
2018-04-19T02:27:38.357Z,16.30
2018-04-19T02:30:07.396Z,16.90
2018-04-19T02:32:35.630Z,16.90
2018-04-19T02:35:03.762Z,17.10
2018-04-19T02:37:32.505Z,17.10
2018-04-19T02:40:00.751Z,17.10
2018-04-19T02:42:28.937Z,17.20
2018-04-19T02:44:57.233Z,17.20
2018-04-19T02:47:25.479Z,17.20
2018-04-19T02:49:53.524Z,17.30
2018-04-19T02:52:21.765Z,17.30
2018-04-19T02:54:50.006Z,17.10
2018-04-19T02:57:18.141Z,17.10
2018-04-19T02:59:46.491Z,16.90
2018-04-19T03:02:14.385Z,16.90
2018-04-19T03:04:42.582Z,16.90
2018-04-19T03:07:11.611Z,16.90
2018-04-19T03:09:39.636Z,16.90
2018-04-19T03:12:07.844Z,16.90
2018-04-19T03:14:36.085Z,16.80
2018-04-19T03:17:04.581Z,16.70
2018-04-19T03:19:32.637Z,16.90
2018-04-19T03:22:00.737Z,16.90
2018-04-19T03:24:28.684Z,16.90
2018-04-19T03:26:56.858Z,16.90
2018-04-19T03:29:25.239Z,16.90
2018-04-19T03:31:53.456Z,16.80
2018-04-19T03:34:21.573Z,16.80
2018-04-19T03:36:49.634Z,16.80
2018-04-19T03:43:52.412Z,16.70
2018-04-19T03:46:20.441Z,16.70
2018-04-19T03:48:48.659Z,16.70
2018-04-19T03:51:17.426Z,16.60
2018-04-19T03:53:45.606Z,16.60
2018-04-19T03:56:13.855Z,16.60
2018-04-19T03:58:41.970Z,16.60
2018-04-19T04:01:10.151Z,16.60
2018-04-19T04:03:38.324Z,16.60
2018-04-19T04:06:06.621Z,16.50
2018-04-19T04:08:34.866Z,16.50
2018-04-19T04:11:02.874Z,16.70
2018-04-19T04:13:31.110Z,16.80
2018-04-19T04:15:59.160Z,16.80
2018-04-19T04:18:39.435Z,16.80
2018-04-19T04:21:18.491Z,16.80
2018-04-19T04:23:52.786Z,16.80
2018-04-19T04:26:20.960Z,16.80
2018-04-19T04:28:48.918Z,16.70
2018-04-19T04:31:17.181Z,16.70
2018-04-19T04:33:45.367Z,16.60
2018-04-19T04:36:13.402Z,16.60
2018-04-19T04:38:41.504Z,16.50
2018-04-19T04:41:09.736Z,16.40
2018-04-19T04:43:37.982Z,16.40
2018-04-19T04:46:06.421Z,16.30
2018-04-19T04:48:34.414Z,16.20
2018-04-19T04:51:02.731Z,16.20
2018-04-19T04:53:30.900Z,16.20
2018-04-19T04:55:58.961Z,16.10
2018-04-19T04:58:27.237Z,16.00
2018-04-19T05:00:55.423Z,15.80
2018-04-19T05:03:23.484Z,15.70
2018-04-19T05:05:51.657Z,15.60
2018-04-19T05:08:19.613Z,15.60
2018-04-19T05:10:47.842Z,15.50
2018-04-19T05:13:16.103Z,15.50
2018-04-19T05:15:44.345Z,15.40
2018-04-19T05:18:12.347Z,15.40
2018-04-19T05:20:40.634Z,15.40
2018-04-19T05:23:08.875Z,15.40
2018-04-19T05:25:37.117Z,15.40
2018-04-19T05:28:05.315Z,15.40
2018-04-19T05:30:33.355Z,15.40
2018-04-19T05:33:01.649Z,15.40
2018-04-19T05:35:29.891Z,15.40
2018-04-19T05:37:58.134Z,15.40
2018-04-19T05:40:26.324Z,15.50
2018-04-19T05:42:54.618Z,15.40
2018-04-19T05:45:22.863Z,15.40
2018-04-19T05:47:51.102Z,15.30
2018-04-19T05:50:19.868Z,15.20
2018-04-19T05:52:48.767Z,15.10
2018-04-19T05:55:16.776Z,15.10
2018-04-19T05:57:44.951Z,15.20
2018-04-19T06:00:12.960Z,15.30
2018-04-19T06:02:41.147Z,15.40
2018-04-19T06:05:09.271Z,15.60
2018-04-19T06:07:37.391Z,15.80
2018-04-19T06:10:05.630Z,16.00
2018-04-19T06:12:33.527Z,16.10
2018-04-19T06:15:01.666Z,16.20
2018-04-19T06:17:29.779Z,16.20
2018-04-19T06:19:58.057Z,16.30
2018-04-19T06:22:26.241Z,16.40
2018-04-19T06:24:55.099Z,16.70
2018-04-19T06:27:23.661Z,16.70
2018-04-19T06:29:53.436Z,16.80
2018-04-19T06:32:22.898Z,17.00
2018-04-19T06:34:50.856Z,17.20
2018-04-19T06:37:19.884Z,17.70
2018-04-19T06:39:48.840Z,17.80
2018-04-19T06:42:17.678Z,18.10
2018-04-19T06:44:46.773Z,18.30
2018-04-19T06:47:14.917Z,18.30
2018-04-19T06:49:43.061Z,18.30
2018-04-19T06:52:11.197Z,18.70
2018-04-19T06:54:39.489Z,18.90
2018-04-19T06:57:07.532Z,19.20
2018-04-19T06:59:35.835Z,19.40
2018-04-19T07:02:04.077Z,19.60
2018-04-19T07:04:32.127Z,19.80
2018-04-19T07:07:00.370Z,20.00
2018-04-19T07:09:29.344Z,20.30
2018-04-19T07:11:57.586Z,20.30
2018-04-19T07:14:25.803Z,20.20
2018-04-19T07:16:54.647Z,20.30
2018-04-19T07:19:23.488Z,20.90
2018-04-19T07:21:51.787Z,20.90
2018-04-19T07:24:20.028Z,21.30
2018-04-19T07:26:48.271Z,21.50
2018-04-19T07:29:16.461Z,21.80
2018-04-19T07:31:44.759Z,21.50
2018-04-19T07:34:12.998Z,22.10
2018-04-19T07:36:40.817Z,22.60
2018-04-19T07:39:09.120Z,23.20
2018-04-19T07:41:37.333Z,23.50
2018-04-19T07:44:05.311Z,23.30
2018-04-19T07:46:33.424Z,23.00
2018-04-19T07:49:01.595Z,23.00
2018-04-19T07:51:30.745Z,23.90
2018-04-19T07:53:58.931Z,23.90
2018-04-19T07:56:27.099Z,23.60
2018-04-19T07:58:55.620Z,24.10
2018-04-19T08:01:23.860Z,24.80
2018-04-19T08:03:52.117Z,25.40
2018-04-19T08:06:20.123Z,24.90
2018-04-19T08:08:48.392Z,24.90
2018-04-19T08:11:16.608Z,25.40
2018-04-19T08:13:44.820Z,25.20
2018-04-19T08:16:13.665Z,25.20
2018-04-19T08:18:41.905Z,25.10
2018-04-19T08:21:10.156Z,25.90
2018-04-19T08:23:38.439Z,26.60
2018-04-19T08:26:06.613Z,26.60
2018-04-19T08:28:35.450Z,27.00
2018-04-19T08:31:04.541Z,27.10
2018-04-19T08:33:32.733Z,27.10
2018-04-19T08:36:00.976Z,27.40
2018-04-19T08:38:29.305Z,27.50
2018-04-19T08:40:57.417Z,27.70
2018-04-19T08:43:25.559Z,27.80
2018-04-19T08:45:53.797Z,27.90
2018-04-19T08:48:21.988Z,27.80
2018-04-19T08:50:49.984Z,27.90
2018-04-19T08:53:18.079Z,28.00
2018-04-19T08:55:46.377Z,28.20
2018-04-19T08:58:14.621Z,28.40
2018-04-19T09:00:43.527Z,28.70
2018-04-19T09:03:11.802Z,28.70
2018-04-19T09:05:39.935Z,28.60
2018-04-19T09:08:08.957Z,28.70
2018-04-19T09:10:37.146Z,28.70
2018-04-19T09:13:06.187Z,28.90
2018-04-19T09:15:34.477Z,28.90
2018-04-19T09:18:02.263Z,28.90
2018-04-19T09:20:31.015Z,29.30
2018-04-19T09:22:59.059Z,29.30
2018-04-19T09:25:27.250Z,29.60
2018-04-19T09:27:55.262Z,29.60
2018-04-19T09:30:23.535Z,29.50
2018-04-19T09:32:51.781Z,29.60
2018-04-19T09:35:20.224Z,29.60
2018-04-19T09:37:49.014Z,29.70
2018-04-19T09:40:17.229Z,29.70
2018-04-19T09:42:46.080Z,29.70
2018-04-19T09:45:14.370Z,29.70
2018-04-19T09:47:42.612Z,30.00
2018-04-19T09:50:11.642Z,29.70
2018-04-19T09:52:39.884Z,29.60
2018-04-19T09:55:08.061Z,29.30
2018-04-19T09:57:36.766Z,29.10
2018-04-19T10:00:05.787Z,29.10
2018-04-19T10:02:35.733Z,29.10
2018-04-19T10:05:04.828Z,29.20
2018-04-19T10:07:33.236Z,29.20
2018-04-19T10:10:01.290Z,29.30
2018-04-19T10:12:29.503Z,29.40
2018-04-19T10:14:57.800Z,29.50
2018-04-19T10:17:26.050Z,29.80
2018-04-19T10:19:55.071Z,29.70
2018-04-19T10:22:23.131Z,29.70
2018-04-19T10:24:51.163Z,29.60
2018-04-19T10:27:19.335Z,29.50
2018-04-19T10:29:48.351Z,30.10
2018-04-19T10:32:16.241Z,30.10
2018-04-19T10:34:44.527Z,30.30
2018-04-19T10:37:12.768Z,30.50
2018-04-19T10:39:41.346Z,30.40
2018-04-19T10:42:10.387Z,30.50
2018-04-19T10:44:38.442Z,30.50
2018-04-19T10:47:06.529Z,30.60
2018-04-19T10:49:34.666Z,30.40
2018-04-19T10:52:02.884Z,30.30
2018-04-19T10:54:30.935Z,30.20
2018-04-19T10:56:59.110Z,30.30
2018-04-19T10:59:28.133Z,30.10
2018-04-19T11:01:56.377Z,30.10
2018-04-19T11:04:24.595Z,30.00
2018-04-19T11:06:52.857Z,29.90
2018-04-19T11:09:20.805Z,29.80
2018-04-19T11:11:48.951Z,30.00
2018-04-19T11:14:17.191Z,30.00
2018-04-19T11:16:45.332Z,30.00
2018-04-19T11:19:13.477Z,29.90
2018-04-19T11:21:41.721Z,29.80
2018-04-19T11:24:10.670Z,29.90
2018-04-19T11:26:39.583Z,30.00
2018-04-19T11:29:07.768Z,30.10
2018-04-19T11:31:35.985Z,29.90
2018-04-19T11:34:03.986Z,30.10
2018-04-19T11:36:32.162Z,30.00
2018-04-19T11:39:00.399Z,29.90
2018-04-19T11:41:28.652Z,30.00
2018-04-19T11:43:57.236Z,29.90
2018-04-19T11:46:25.519Z,30.30
2018-04-19T11:48:53.770Z,30.50
2018-04-19T11:51:22.006Z,30.50
2018-04-19T11:53:51.033Z,29.90
2018-04-19T11:56:19.276Z,29.90
2018-04-19T11:58:47.518Z,29.50
2018-04-19T12:01:15.719Z,29.40
2018-04-19T12:03:44.005Z,29.60
2018-04-19T12:06:12.247Z,29.70
2018-04-19T12:08:40.398Z,29.50
2018-04-19T12:11:08.299Z,29.30
2018-04-19T12:13:36.639Z,29.10
2018-04-19T12:16:05.218Z,29.10
2018-04-19T12:18:33.441Z,29.10
2018-04-19T12:21:01.702Z,29.20
2018-04-19T12:23:30.737Z,29.10
2018-04-19T12:25:58.973Z,29.00
2018-04-19T12:28:27.161Z,29.40
2018-04-19T12:30:55.458Z,29.70
2018-04-19T12:33:23.467Z,30.10
2018-04-19T12:35:51.639Z,30.10
2018-04-19T12:38:20.736Z,30.00
2018-04-19T12:40:48.773Z,29.80
2018-04-19T12:43:17.016Z,29.80
2018-04-19T12:45:45.310Z,29.70
2018-04-19T12:48:13.948Z,29.60
2018-04-19T12:50:42.942Z,29.40
2018-04-19T12:53:11.089Z,29.40
2018-04-19T12:55:39.227Z,29.50
2018-04-19T12:58:07.500Z,29.80
2018-04-19T13:00:35.643Z,29.80
2018-04-19T13:03:03.593Z,30.00
2018-04-19T13:05:31.722Z,30.20
2018-04-19T13:07:59.880Z,30.40
2018-04-19T13:10:28.321Z,30.50
2018-04-19T13:12:57.372Z,30.60
2018-04-19T13:15:25.593Z,30.60
2018-04-19T13:17:53.788Z,30.50
2018-04-19T13:20:22.601Z,30.40
2018-04-19T13:22:51.265Z,30.50
2018-04-19T13:25:19.545Z,30.50
2018-04-19T13:27:47.593Z,30.40
2018-04-19T13:30:15.831Z,30.40
2018-04-19T13:32:44.037Z,29.80
2018-04-19T13:35:12.204Z,29.70
2018-04-19T13:37:40.124Z,29.70
2018-04-19T13:40:08.408Z,29.80
2018-04-19T13:42:36.659Z,29.90
2018-04-19T13:45:04.851Z,29.90
2018-04-19T13:47:32.843Z,29.90
2018-04-19T13:50:00.986Z,29.90
2018-04-19T13:52:29.227Z,29.90
2018-04-19T13:54:57.440Z,29.90
2018-04-19T13:57:25.715Z,29.80
2018-04-19T13:59:53.904Z,29.70
2018-04-19T14:02:22.201Z,29.80
2018-04-19T14:04:50.444Z,29.90
2018-04-19T14:07:18.683Z,29.90
2018-04-19T14:09:46.925Z,29.70
2018-04-19T14:12:15.092Z,29.50
2018-04-19T14:14:43.862Z,29.70
2018-04-19T14:17:11.808Z,29.60
2018-04-19T14:19:40.091Z,29.70
2018-04-19T14:22:08.037Z,29.60
2018-04-19T14:24:36.429Z,29.50
2018-04-19T14:27:04.631Z,29.30
2018-04-19T14:29:33.649Z,29.00
2018-04-19T14:32:01.586Z,28.90
2018-04-19T14:34:30.330Z,28.90
2018-04-19T14:36:58.564Z,28.70
2018-04-19T14:42:00.700Z,28.30
2018-04-19T14:44:29.667Z,28.00
2018-04-19T14:46:57.833Z,27.90
2018-04-19T14:49:25.802Z,27.70
2018-04-19T14:51:54.471Z,27.60
2018-04-19T14:54:22.757Z,27.60
2018-04-19T14:56:51.394Z,27.40
2018-04-19T14:59:19.570Z,27.20
2018-04-19T15:01:48.468Z,27.00
2018-04-19T15:04:16.710Z,27.00
2018-04-19T15:06:44.897Z,26.90
2018-04-19T15:09:13.144Z,26.90
2018-04-19T15:11:41.210Z,26.70
2018-04-19T15:14:09.425Z,26.60
2018-04-19T15:16:37.995Z,26.60
2018-04-19T15:19:06.560Z,26.50
2018-04-19T15:21:34.800Z,26.30
2018-04-19T15:24:02.950Z,26.20
2018-04-19T15:26:31.240Z,26.30
2018-04-19T15:28:59.875Z,26.40
2018-04-19T15:31:28.162Z,26.40
2018-04-19T15:33:56.410Z,26.40
2018-04-19T15:36:25.381Z,26.40
2018-04-19T15:38:53.684Z,26.30
2018-04-19T15:41:22.071Z,26.30
2018-04-19T15:43:50.164Z,26.30
2018-04-19T15:46:18.349Z,26.30
2018-04-19T15:48:46.407Z,26.30
2018-04-19T15:51:14.690Z,26.10
2018-04-19T15:53:42.942Z,26.00
2018-04-19T15:56:11.962Z,26.00
2018-04-19T15:58:40.220Z,26.00
2018-04-19T16:01:08.446Z,26.10
2018-04-19T16:03:36.689Z,26.10
2018-04-19T16:06:05.128Z,26.10
2018-04-19T16:08:33.371Z,26.00
2018-04-19T16:11:01.604Z,26.00
2018-04-19T16:13:29.863Z,25.90
2018-04-19T16:15:58.032Z,26.00
2018-04-19T16:18:26.734Z,26.00
2018-04-19T16:20:54.967Z,25.90
2018-04-19T16:23:23.218Z,25.90
2018-04-19T16:25:51.401Z,25.90
2018-04-19T16:28:19.671Z,25.80
2018-04-19T16:30:47.943Z,25.70
2018-04-19T16:33:16.199Z,25.70
2018-04-19T16:35:44.434Z,25.70
2018-04-19T16:38:12.617Z,25.60
2018-04-19T16:40:40.912Z,25.60
2018-04-19T16:43:09.157Z,25.50
2018-04-19T16:45:38.182Z,25.40
2018-04-19T16:48:06.423Z,25.30
2018-04-19T16:50:34.597Z,25.30
2018-04-19T16:53:03.516Z,25.20
2018-04-19T16:55:31.740Z,25.20
2018-04-19T16:57:59.983Z,25.20
2018-04-19T17:00:28.172Z,25.20
2018-04-19T17:02:56.467Z,25.20
2018-04-19T17:05:24.715Z,25.10
2018-04-19T17:07:53.618Z,25.00
2018-04-19T17:10:21.792Z,25.00
2018-04-19T17:12:49.978Z,25.10
2018-04-19T17:15:18.220Z,25.00
2018-04-19T17:17:46.438Z,25.00
2018-04-19T17:20:15.205Z,24.90
2018-04-19T17:22:43.390Z,24.90
2018-04-19T17:25:11.633Z,24.90
2018-04-19T17:27:39.877Z,24.70
2018-04-19T17:30:08.051Z,24.70
2018-04-19T17:32:36.898Z,24.60
2018-04-19T17:35:05.198Z,24.60
2018-04-19T17:37:33.435Z,24.50
2018-04-19T17:40:01.575Z,24.40
2018-04-19T17:42:29.688Z,24.40
2018-04-19T17:44:57.965Z,24.30
2018-04-19T17:47:25.972Z,24.20
2018-04-19T17:49:54.163Z,24.20
2018-04-19T17:52:23.205Z,24.10
2018-04-19T17:54:51.972Z,23.90
2018-04-19T17:57:20.016Z,23.90
2018-04-19T17:59:48.107Z,23.90
2018-04-19T18:02:17.151Z,23.80
2018-04-19T18:04:45.087Z,23.80
2018-04-19T18:07:13.326Z,23.80
2018-04-19T18:09:42.118Z,23.70
2018-04-19T18:12:10.399Z,23.60
2018-04-19T18:14:38.642Z,23.50
2018-04-19T18:17:06.887Z,23.40
2018-04-19T18:19:35.076Z,23.40
2018-04-19T18:22:03.370Z,23.30
2018-04-19T18:24:31.610Z,23.20
2018-04-19T18:26:59.614Z,23.10
2018-04-19T18:29:27.898Z,23.00
2018-04-19T18:31:56.082Z,23.00
2018-04-19T18:34:24.299Z,22.90
2018-04-19T18:36:53.197Z,22.70
2018-04-19T18:39:21.457Z,22.70
2018-04-19T18:41:49.462Z,22.70
2018-04-19T18:44:17.746Z,22.60
2018-04-19T18:46:45.890Z,22.60
2018-04-19T18:49:13.980Z,22.50
2018-04-19T18:51:42.223Z,22.50
2018-04-19T18:54:10.467Z,22.40
2018-04-19T18:56:39.378Z,22.30
2018-04-19T18:59:07.549Z,22.20
2018-04-19T19:01:35.897Z,22.20
2018-04-19T19:04:04.058Z,22.10
2018-04-19T19:06:32.321Z,22.00
2018-04-19T19:09:00.594Z,21.90
2018-04-19T19:11:28.686Z,21.90
2018-04-19T19:13:57.202Z,21.80
2018-04-19T19:16:25.093Z,21.80
2018-04-19T19:19:05.318Z,21.80
2018-04-19T19:21:33.529Z,21.70
2018-04-19T19:24:01.747Z,21.70
2018-04-19T19:26:29.822Z,21.60
2018-04-19T19:28:58.031Z,21.60
2018-04-19T19:31:26.877Z,21.50
2018-04-19T19:33:55.115Z,21.50
2018-04-19T19:36:23.958Z,21.30
2018-04-19T19:38:52.199Z,21.30
2018-04-19T19:41:20.542Z,21.20
2018-04-19T19:43:49.658Z,21.10
2018-04-19T19:46:17.960Z,21.10
2018-04-19T19:48:46.202Z,21.10
2018-04-19T19:51:14.384Z,21.10
2018-04-19T19:53:43.228Z,21.00
2018-04-19T19:56:11.530Z,21.00
2018-04-19T19:58:39.715Z,20.90
2018-04-19T20:01:08.987Z,20.80
2018-04-19T20:03:37.182Z,20.80
2018-04-19T20:06:05.475Z,20.80
2018-04-19T20:08:33.507Z,20.70
2018-04-19T20:11:01.762Z,20.70
2018-04-19T20:13:30.004Z,20.50
2018-04-19T20:15:58.236Z,20.60
2018-04-19T20:18:26.644Z,20.50
2018-04-19T20:20:55.363Z,20.40
2018-04-19T20:23:23.462Z,20.30
2018-04-19T20:25:51.604Z,20.20
2018-04-19T20:28:19.851Z,20.20
2018-04-19T20:30:48.041Z,20.10
2018-04-19T20:33:17.123Z,20.00
2018-04-19T20:35:45.321Z,20.00
2018-04-19T20:38:13.368Z,20.10
2018-04-19T20:40:41.415Z,19.90
2018-04-19T20:43:09.673Z,19.80
2018-04-19T20:45:37.741Z,19.80
2018-04-19T20:48:05.984Z,19.70
2018-04-19T20:50:34.152Z,19.70
2018-04-19T20:53:02.992Z,19.70
2018-04-19T20:55:32.213Z,19.70
2018-04-19T20:58:01.057Z,19.60
2018-04-19T21:00:29.359Z,19.60
2018-04-19T21:02:57.590Z,19.50
2018-04-19T21:05:25.845Z,19.60
2018-04-19T21:07:54.423Z,19.60
2018-04-19T21:10:22.721Z,19.60
2018-04-19T21:12:50.904Z,19.80
2018-04-19T21:15:19.225Z,19.80
2018-04-19T21:17:47.448Z,19.70
2018-04-19T21:20:15.559Z,19.70
2018-04-19T21:22:43.705Z,19.70
2018-04-19T21:25:11.743Z,19.70
2018-04-19T21:27:40.026Z,19.60
2018-04-19T21:30:08.273Z,19.70
2018-04-19T21:32:36.512Z,19.60
2018-04-19T21:35:04.751Z,19.50
2018-04-19T21:37:32.993Z,19.50
2018-04-19T21:40:01.237Z,19.40
2018-04-19T21:42:29.362Z,19.50
2018-04-19T21:44:57.453Z,19.30
2018-04-19T21:47:26.593Z,19.20
2018-04-19T21:49:54.555Z,19.20
2018-04-19T21:52:22.730Z,19.20
2018-04-19T21:54:51.090Z,19.00
2018-04-19T21:57:19.190Z,19.00
2018-04-19T21:59:47.783Z,19.00
2018-04-19T22:02:15.950Z,19.10
2018-04-19T22:04:44.202Z,19.10
2018-04-19T22:07:12.491Z,19.00
2018-04-19T22:09:40.654Z,19.00
2018-04-19T22:12:09.518Z,19.00
2018-04-19T22:14:38.005Z,18.90
2018-04-19T22:17:06.206Z,18.90
2018-04-19T22:19:34.253Z,18.90
2018-04-19T22:22:02.323Z,18.90
2018-04-19T22:24:30.380Z,18.90
2018-04-19T22:26:58.398Z,18.80
2018-04-19T22:29:26.368Z,18.70
2018-04-19T22:31:54.522Z,18.80
2018-04-19T22:34:22.522Z,18.80
2018-04-19T22:36:50.771Z,18.80
2018-04-19T22:39:18.982Z,18.80
2018-04-19T22:41:47.824Z,18.60
2018-04-19T22:44:16.912Z,18.50
2018-04-19T22:46:45.943Z,18.50
2018-04-19T22:49:14.183Z,18.50
2018-04-19T22:51:42.512Z,18.50
2018-04-19T22:54:11.011Z,18.40
2018-04-19T22:56:39.304Z,18.30
2018-04-19T22:59:07.546Z,18.30
2018-04-19T23:01:35.790Z,18.30
2018-04-19T23:04:03.842Z,18.10
2018-04-19T23:06:32.025Z,18.00
2018-04-19T23:09:00.321Z,17.90
2018-04-19T23:11:28.561Z,17.90
2018-04-19T23:13:56.770Z,17.90
2018-04-19T23:16:24.965Z,17.90
2018-04-19T23:18:53.878Z,17.90
2018-04-19T23:21:22.273Z,17.90
2018-04-19T23:23:50.144Z,17.80
2018-04-19T23:26:18.911Z,17.90
2018-04-19T23:28:47.242Z,17.90
2018-04-19T23:31:15.483Z,17.80
2018-04-19T23:33:43.723Z,17.80
2018-04-19T23:36:11.929Z,17.80
2018-04-19T23:38:40.147Z,17.60
2018-04-19T23:41:08.455Z,17.40
2018-04-19T23:43:36.497Z,17.30
2018-04-19T23:46:04.673Z,17.30
2018-04-19T23:48:33.513Z,17.50
2018-04-19T23:51:01.817Z,17.50
2018-04-19T23:53:29.975Z,17.50
2018-04-19T23:55:58.791Z,17.40
2018-04-19T23:58:26.886Z,17.40
